createdAt,value
2018-01-25T04:32:41.398Z,6.00
2018-01-25T04:35:09.160Z,6.00
2018-01-25T04:37:37.026Z,6.10
2018-01-25T04:40:04.789Z,6.20
2018-01-25T04:42:32.551Z,6.30
2018-01-25T04:45:00.416Z,6.40
2018-01-25T04:47:28.179Z,6.50
2018-01-25T04:49:55.942Z,6.60
2018-01-25T04:52:23.705Z,6.70
2018-01-25T04:54:51.468Z,6.70
2018-01-25T04:57:19.332Z,6.70
2018-01-25T04:59:47.096Z,6.60
2018-01-25T05:02:15.056Z,6.70
2018-01-25T05:04:42.827Z,6.80
2018-01-25T05:07:10.590Z,6.90
2018-01-25T05:09:38.454Z,7.00
2018-01-25T05:12:06.217Z,7.00
2018-01-25T05:14:33.983Z,7.10
2018-01-25T05:17:02.767Z,7.20
2018-01-25T05:19:30.531Z,7.20
2018-01-25T05:21:58.293Z,7.30
2018-01-25T05:24:26.158Z,7.50
2018-01-25T05:26:53.970Z,7.80
2018-01-25T05:29:22.504Z,7.90
2018-01-25T05:31:50.369Z,7.90
2018-01-25T05:34:18.132Z,8.00
2018-01-25T05:36:45.997Z,8.10
2018-01-25T05:39:13.761Z,8.10
2018-01-25T05:41:41.625Z,8.10
2018-01-25T05:44:09.390Z,8.20
2018-01-25T05:46:37.151Z,8.30
2018-01-25T05:49:04.983Z,8.40
2018-01-25T05:51:32.778Z,8.40
2018-01-25T05:54:00.542Z,8.40
2018-01-25T05:56:28.304Z,8.50
2018-01-25T05:58:56.114Z,8.50
2018-01-25T06:01:24.649Z,8.50
2018-01-25T06:03:52.514Z,8.50
2018-01-25T06:06:20.380Z,8.40
2018-01-25T06:08:48.143Z,8.40
2018-01-25T06:11:16.008Z,8.40
2018-01-25T06:13:44.590Z,8.40
2018-01-25T06:16:12.353Z,8.40
2018-01-25T06:18:40.269Z,8.40
2018-01-25T06:21:08.801Z,8.40
2018-01-25T06:23:36.563Z,8.40
2018-01-25T06:26:04.429Z,8.30
2018-01-25T06:28:32.499Z,8.30
2018-01-25T06:31:00.261Z,8.30
2018-01-25T06:33:28.127Z,8.40
2018-01-25T06:35:55.891Z,8.30
2018-01-25T06:38:23.756Z,8.40
2018-01-25T06:40:51.519Z,8.30
2018-01-25T06:43:19.281Z,8.40
2018-01-25T06:45:47.146Z,8.40
2018-01-25T06:48:17.475Z,8.40
2018-01-25T06:50:48.919Z,8.40
2018-01-25T06:53:17.705Z,8.40
2018-01-25T06:55:45.570Z,8.30
2018-01-25T06:58:13.333Z,8.30
2018-01-25T07:00:41.032Z,8.40
2018-01-25T07:03:09.678Z,8.30
2018-01-25T07:05:37.442Z,8.30
2018-01-25T07:08:05.205Z,8.20
2018-01-25T07:10:32.967Z,8.10
2018-01-25T07:13:00.731Z,8.20
2018-01-25T07:15:28.595Z,8.20
2018-01-25T07:17:56.359Z,8.30
2018-01-25T07:20:24.122Z,8.40
2018-01-25T07:22:51.987Z,8.30
2018-01-25T07:25:19.750Z,8.40
2018-01-25T07:27:47.566Z,8.40
2018-01-25T07:30:16.197Z,8.40
2018-01-25T07:32:43.960Z,8.40
2018-01-25T07:35:11.826Z,8.50
2018-01-25T07:37:39.588Z,8.60
2018-01-25T07:40:07.351Z,8.60
2018-01-25T07:42:35.216Z,8.60
2018-01-25T07:45:02.980Z,8.50
2018-01-25T07:47:32.329Z,8.50
2018-01-25T07:50:00.349Z,8.50
2018-01-25T07:52:28.113Z,8.50
2018-01-25T07:54:55.875Z,8.50
2018-01-25T08:00:26.215Z,8.70
2018-01-25T08:02:54.083Z,8.70
2018-01-25T08:05:21.845Z,8.80
2018-01-25T08:07:49.607Z,8.70
2018-01-25T08:10:17.473Z,8.90
2018-01-25T08:12:45.235Z,8.90
2018-01-25T08:15:13.000Z,8.90
2018-01-25T08:17:40.762Z,8.90
2018-01-25T08:20:08.525Z,9.00
2018-01-25T08:22:36.390Z,9.00
2018-01-25T08:25:04.154Z,9.00
2018-01-25T08:27:31.916Z,9.00
2018-01-25T08:29:59.987Z,8.90
2018-01-25T08:32:27.749Z,9.00
2018-01-25T08:34:55.511Z,9.00
2018-01-25T08:37:23.378Z,9.00
2018-01-25T08:39:51.141Z,9.00
2018-01-25T08:42:18.907Z,8.90
2018-01-25T08:44:46.770Z,9.00
2018-01-25T08:47:14.531Z,9.10
2018-01-25T08:49:42.293Z,9.10
2018-01-25T08:52:10.107Z,9.20
2018-01-25T08:54:37.863Z,9.20
2018-01-25T08:57:06.506Z,9.20
2018-01-25T08:59:34.371Z,9.30
2018-01-25T09:02:02.142Z,9.30
2018-01-25T09:04:29.897Z,9.20
2018-01-25T09:06:57.699Z,9.30
2018-01-25T09:09:26.244Z,9.40
2018-01-25T09:11:54.107Z,9.30
2018-01-25T09:14:21.870Z,9.40
2018-01-25T09:16:49.634Z,9.40
2018-01-25T09:19:17.498Z,9.40
2018-01-25T09:21:45.264Z,9.50
2018-01-25T09:24:13.024Z,9.50
2018-01-25T09:26:40.889Z,9.50
2018-01-25T09:29:08.652Z,9.50
2018-01-25T09:31:36.417Z,9.50
2018-01-25T09:34:04.279Z,9.60
2018-01-25T09:36:32.041Z,9.60
2018-01-25T09:38:59.804Z,9.60
2018-01-25T09:41:27.684Z,9.60
2018-01-25T09:43:55.432Z,9.60
2018-01-25T09:46:23.197Z,9.70
2018-01-25T09:48:51.060Z,9.70
2018-01-25T09:51:18.824Z,9.70
2018-01-25T09:53:46.587Z,9.70
2018-01-25T09:56:14.453Z,9.60
2018-01-25T09:58:42.214Z,9.60
2018-01-25T10:01:10.080Z,9.60
2018-01-25T10:03:37.843Z,9.60
2018-01-25T10:06:05.609Z,9.70
2018-01-25T10:08:33.473Z,9.80
2018-01-25T10:11:01.234Z,9.80
2018-01-25T10:13:28.998Z,9.70
2018-01-25T10:15:56.862Z,9.80
2018-01-25T10:18:24.626Z,9.80
2018-01-25T10:20:52.388Z,9.80
2018-01-25T10:23:20.256Z,9.90
2018-01-25T10:25:48.016Z,9.90
2018-01-25T10:28:15.780Z,10.00
2018-01-25T10:30:43.651Z,10.10
2018-01-25T10:33:11.510Z,10.10
2018-01-25T10:35:39.275Z,10.20
2018-01-25T10:38:07.140Z,10.30
2018-01-25T10:40:34.839Z,10.40
2018-01-25T10:43:03.331Z,10.50
2018-01-25T10:45:31.143Z,10.50
2018-01-25T10:47:58.843Z,10.60
2018-01-25T10:50:27.386Z,10.60
2018-01-25T10:52:55.252Z,10.60
2018-01-25T10:55:23.014Z,10.60
2018-01-25T10:57:50.779Z,10.70
2018-01-25T11:00:18.643Z,10.70
2018-01-25T11:02:46.406Z,10.70
2018-01-25T11:05:14.168Z,10.70
2018-01-25T11:07:42.033Z,10.70
2018-01-25T11:10:09.801Z,10.60
2018-01-25T11:12:37.662Z,10.60
2018-01-25T11:15:05.527Z,10.60
2018-01-25T11:17:33.290Z,10.60
2018-01-25T11:20:01.155Z,10.50
2018-01-25T11:22:28.971Z,10.50
2018-01-25T11:24:56.785Z,10.40
2018-01-25T11:27:24.649Z,10.40
2018-01-25T11:29:52.526Z,10.50
2018-01-25T11:32:20.277Z,10.50
2018-01-25T11:34:48.141Z,10.60
2018-01-25T11:37:15.905Z,10.60
2018-01-25T11:39:43.667Z,10.60
2018-01-25T11:42:11.435Z,10.50
2018-01-25T11:44:39.398Z,10.50
2018-01-25T11:47:07.307Z,10.50
2018-01-25T11:49:35.845Z,10.30
2018-01-25T11:52:03.612Z,10.30
2018-01-25T11:54:31.479Z,10.30
2018-01-25T11:56:59.239Z,10.20
2018-01-25T11:59:26.999Z,10.20
2018-01-25T12:01:54.865Z,10.20
2018-01-25T12:04:22.730Z,10.20
2018-01-25T12:06:50.596Z,10.20
2018-01-25T12:09:18.358Z,10.20
2018-01-25T12:11:46.121Z,10.20
2018-01-25T12:14:13.986Z,10.30
2018-01-25T12:16:41.749Z,10.20
2018-01-25T12:19:09.616Z,10.30
2018-01-25T12:21:37.377Z,10.30
2018-01-25T12:24:05.143Z,10.40
2018-01-25T12:26:32.943Z,10.40
2018-01-25T12:29:01.486Z,10.50
2018-01-25T12:31:29.248Z,10.40
2018-01-25T12:33:57.113Z,10.40
2018-01-25T12:36:24.815Z,10.50
2018-01-25T12:38:53.458Z,10.60
2018-01-25T12:41:21.223Z,10.60
2018-01-25T12:43:48.985Z,10.70
2018-01-25T12:46:16.850Z,10.70
2018-01-25T12:48:44.562Z,10.80
2018-01-25T12:51:12.376Z,10.80
2018-01-25T12:53:40.244Z,10.80
2018-01-25T12:56:08.004Z,10.80
2018-01-25T12:58:35.766Z,10.80
2018-01-25T13:01:03.632Z,10.80
2018-01-25T13:03:31.394Z,10.90
2018-01-25T13:05:59.106Z,10.80
2018-01-25T13:08:27.023Z,10.90
2018-01-25T13:10:54.787Z,11.00
2018-01-25T13:13:22.549Z,10.90
2018-01-25T13:15:50.311Z,11.00
2018-01-25T13:18:18.074Z,10.90
2018-01-25T13:20:45.940Z,10.90
2018-01-25T13:23:13.805Z,10.80
2018-01-25T13:25:41.570Z,10.70
2018-01-25T13:28:09.331Z,10.70
2018-01-25T13:30:37.196Z,10.70
2018-01-25T13:33:10.693Z,10.60
2018-01-25T13:35:38.764Z,10.60
2018-01-25T13:38:06.527Z,10.70
2018-01-25T13:40:34.393Z,10.70
2018-01-25T13:43:02.257Z,10.70
2018-01-25T13:45:30.021Z,10.70
2018-01-25T13:47:57.886Z,10.70
2018-01-25T13:50:25.648Z,10.70
2018-01-25T13:52:53.410Z,10.70
2018-01-25T13:55:21.278Z,10.60
2018-01-25T13:57:49.039Z,10.60
2018-01-25T14:00:16.802Z,10.60
2018-01-25T14:02:44.667Z,10.60
2018-01-25T14:05:13.984Z,10.70
2018-01-25T14:07:41.882Z,10.70
2018-01-25T14:10:09.799Z,10.70
2018-01-25T14:12:37.562Z,10.60
2018-01-25T14:15:05.328Z,10.60
2018-01-25T14:17:33.190Z,10.60
2018-01-25T14:20:00.953Z,10.70
2018-01-25T14:22:28.819Z,10.60
2018-01-25T14:24:56.683Z,10.60
2018-01-25T14:27:24.446Z,10.60
2018-01-25T14:29:52.312Z,10.60
2018-01-25T14:32:20.115Z,10.50
2018-01-25T14:34:48.658Z,10.40
2018-01-25T14:37:16.421Z,10.40
2018-01-25T14:39:44.215Z,10.30
2018-01-25T14:42:12.766Z,10.20
2018-01-25T14:44:40.630Z,10.20
2018-01-25T14:47:08.393Z,10.20
2018-01-25T14:49:36.156Z,10.20
2018-01-25T14:52:03.962Z,10.10
2018-01-25T14:54:32.500Z,10.10
2018-01-25T14:57:00.570Z,10.10
2018-01-25T14:59:28.338Z,10.20
2018-01-25T15:01:56.202Z,10.10
2018-01-25T15:04:24.068Z,10.00
2018-01-25T15:06:51.929Z,10.00
2018-01-25T15:09:19.795Z,10.00
2018-01-25T15:11:47.557Z,10.00
2018-01-25T15:14:15.322Z,10.00
2018-01-25T15:16:43.130Z,9.90
2018-01-25T15:19:11.666Z,9.90
2018-01-25T15:21:39.449Z,9.90
2018-01-25T15:24:07.293Z,9.80
2018-01-25T15:26:35.056Z,9.80
2018-01-25T15:29:02.921Z,9.70
2018-01-25T15:31:30.685Z,9.80
2018-01-25T15:33:58.447Z,9.70
2018-01-25T15:36:26.314Z,9.60
2018-01-25T15:38:54.178Z,9.50
2018-01-25T15:41:21.948Z,9.40
2018-01-25T15:43:49.987Z,9.30
2018-01-25T15:46:18.388Z,9.10
2018-01-25T15:48:46.154Z,9.10
2018-01-25T15:51:14.016Z,9.00
2018-01-25T15:53:41.779Z,8.90
2018-01-25T15:56:09.542Z,8.90
2018-01-25T15:58:37.407Z,8.90
2018-01-25T16:01:05.169Z,8.90
2018-01-25T16:03:33.138Z,8.90
2018-01-25T16:06:00.903Z,8.80
2018-01-25T16:08:28.663Z,8.70
2018-01-25T16:10:56.529Z,8.60
2018-01-25T16:13:24.292Z,8.50
2018-01-25T16:15:52.054Z,8.30
2018-01-25T16:18:19.920Z,8.20
2018-01-25T16:20:47.682Z,8.10
2018-01-25T16:23:15.446Z,8.10
2018-01-25T16:25:43.208Z,8.10
2018-01-25T16:28:10.972Z,8.00
2018-01-25T16:30:38.734Z,8.10
2018-01-25T16:33:06.599Z,8.00
2018-01-25T16:35:34.391Z,8.10
2018-01-25T16:38:02.945Z,8.10
2018-01-25T16:40:30.810Z,8.10
2018-01-25T16:42:58.572Z,8.10
2018-01-25T16:45:26.274Z,8.10
2018-01-25T16:47:54.815Z,8.10
2018-01-25T16:50:22.578Z,8.00
2018-01-25T16:52:50.443Z,8.10
2018-01-25T16:55:18.309Z,8.20
2018-01-25T16:57:46.071Z,8.10
2018-01-25T17:00:13.835Z,8.10
2018-01-25T17:02:41.700Z,8.10
2018-01-25T17:05:09.463Z,8.10
2018-01-25T17:07:37.328Z,8.10
2018-01-25T17:10:05.027Z,8.00
2018-01-25T17:12:33.576Z,8.00
2018-01-25T17:15:01.538Z,8.00
2018-01-25T17:17:29.301Z,8.00
2018-01-25T17:19:57.064Z,8.00
2018-01-25T17:22:24.929Z,7.90
2018-01-25T17:24:52.692Z,7.90
2018-01-25T17:27:20.456Z,7.80
2018-01-25T17:29:48.320Z,7.70
2018-01-25T17:32:16.083Z,7.70
2018-01-25T17:34:43.845Z,7.70
2018-01-25T17:37:11.725Z,7.70
2018-01-25T17:39:39.678Z,7.60
2018-01-25T17:42:07.384Z,7.60
2018-01-25T17:44:35.975Z,7.60
2018-01-25T17:47:03.787Z,7.60
2018-01-25T17:49:31.549Z,7.70
2018-01-25T17:51:59.415Z,7.70
2018-01-25T17:54:27.281Z,7.70
2018-01-25T17:56:55.146Z,7.80
2018-01-25T17:59:23.011Z,7.80
2018-01-25T18:01:50.773Z,7.80
2018-01-25T18:04:18.537Z,7.90
2018-01-25T18:06:46.401Z,8.00
2018-01-25T18:09:14.164Z,8.00
2018-01-25T18:11:41.883Z,8.10
2018-01-25T18:14:09.738Z,8.10
2018-01-25T18:16:38.272Z,8.10
2018-01-25T18:19:06.035Z,8.10
2018-01-25T18:21:33.903Z,8.10
2018-01-25T18:24:01.715Z,8.00
2018-01-25T18:26:29.528Z,8.10
2018-01-25T18:28:57.394Z,8.10
2018-01-25T18:31:25.157Z,8.10
2018-01-25T18:33:52.919Z,8.20
2018-01-25T18:36:20.784Z,8.20
2018-01-25T18:38:48.547Z,8.20
2018-01-25T18:41:16.412Z,8.30
2018-01-25T18:43:44.180Z,8.20
2018-01-25T18:46:12.041Z,8.20
2018-01-25T18:48:39.906Z,8.20
2018-01-25T18:51:07.668Z,8.10
2018-01-25T18:53:35.433Z,8.00
2018-01-25T18:56:03.297Z,7.80
2018-01-25T18:58:31.060Z,7.90
2018-01-25T19:00:58.925Z,7.80
2018-01-25T19:03:26.761Z,7.80
2018-01-25T19:05:54.467Z,7.80
2018-01-25T19:08:22.214Z,7.90
2018-01-25T19:10:49.977Z,8.00
2018-01-25T19:13:17.842Z,8.10
2018-01-25T19:15:45.605Z,8.20
2018-01-25T19:18:14.127Z,8.40
2018-01-25T19:20:42.771Z,8.30
2018-01-25T19:23:10.486Z,8.30
2018-01-25T19:25:38.242Z,8.30
2018-01-25T19:28:06.060Z,8.40
2018-01-25T19:30:33.824Z,8.50
2018-01-25T19:33:01.584Z,8.50
2018-01-25T19:35:29.449Z,8.50
2018-01-25T19:37:57.263Z,8.50
2018-01-25T19:40:25.077Z,8.40
2018-01-25T19:42:52.842Z,8.30
2018-01-25T19:45:20.602Z,8.20
2018-01-25T19:47:48.366Z,8.20
2018-01-25T19:50:16.078Z,8.20
2018-01-25T19:52:43.892Z,8.20
2018-01-25T19:55:11.756Z,8.10
2018-01-25T19:57:39.622Z,8.00
2018-01-25T20:00:07.487Z,8.10
2018-01-25T20:02:35.250Z,8.00
2018-01-25T20:05:03.013Z,7.90
2018-01-25T20:07:30.877Z,7.80
2018-01-25T20:09:58.743Z,7.80
2018-01-25T20:12:26.507Z,7.80
2018-01-25T20:14:54.371Z,7.80
2018-01-25T20:17:22.442Z,7.80
2018-01-25T20:19:50.355Z,7.70
2018-01-25T20:22:18.119Z,7.60
2018-01-25T20:24:46.652Z,7.60
2018-01-25T20:27:14.517Z,7.50
2018-01-25T20:29:42.280Z,7.50
2018-01-25T20:32:10.043Z,7.40
2018-01-25T20:34:37.860Z,7.40
2018-01-25T20:37:05.619Z,7.40
2018-01-25T20:39:33.434Z,7.40
2018-01-25T20:42:01.301Z,7.40
2018-01-25T20:44:29.165Z,7.40
2018-01-25T20:46:56.928Z,7.40
2018-01-25T20:49:24.691Z,7.40
2018-01-25T20:51:52.556Z,7.30
2018-01-25T20:54:21.241Z,7.30
2018-01-25T20:56:49.147Z,7.20
2018-01-25T20:59:17.688Z,7.10
2018-01-25T21:01:45.451Z,7.10
2018-01-25T21:04:13.316Z,7.30
2018-01-25T21:06:41.079Z,7.50
2018-01-25T21:09:11.458Z,7.40
2018-01-25T21:11:39.472Z,7.30
2018-01-25T21:14:07.280Z,7.10
2018-01-25T21:16:35.919Z,6.90
2018-01-25T21:19:03.682Z,6.90
2018-01-25T21:21:31.599Z,6.90
2018-01-25T21:23:59.416Z,6.80
2018-01-25T21:26:27.176Z,6.70
2018-01-25T21:28:55.044Z,6.80
2018-01-25T21:31:22.804Z,6.80
2018-01-25T21:33:50.670Z,6.70
2018-01-25T21:36:18.538Z,6.70
2018-01-25T21:38:46.300Z,6.70
2018-01-25T21:41:14.065Z,6.60
2018-01-25T21:43:41.926Z,6.50
2018-01-25T21:46:09.793Z,6.50
2018-01-25T21:48:37.628Z,6.50
2018-01-25T21:51:05.419Z,6.50
2018-01-25T21:53:33.285Z,6.50
2018-01-25T21:56:01.047Z,6.50
2018-01-25T21:58:28.811Z,6.60
2018-01-25T22:00:56.676Z,6.60
2018-01-25T22:03:24.466Z,6.60
2018-01-25T22:05:53.020Z,6.80
2018-01-25T22:08:20.893Z,6.70
2018-01-25T22:10:48.650Z,6.70
2018-01-25T22:13:16.421Z,6.60
2018-01-25T22:15:44.278Z,6.50
2018-01-25T22:18:12.143Z,6.40
2018-01-25T22:20:39.909Z,6.40
2018-01-25T22:23:07.718Z,6.30
2018-01-25T22:25:37.792Z,6.20
2018-01-25T22:28:06.471Z,6.20
2018-01-25T22:30:34.235Z,6.20
2018-01-25T22:33:01.997Z,6.20
2018-01-25T22:35:29.862Z,6.20
2018-01-25T22:37:57.625Z,6.20
2018-01-25T22:40:25.387Z,6.30
2018-01-25T22:42:53.253Z,6.50
2018-01-25T22:45:21.016Z,6.60
2018-01-25T22:47:48.779Z,6.60
2018-01-25T22:50:16.644Z,6.60
2018-01-25T22:52:44.406Z,6.40
2018-01-25T22:55:12.170Z,6.40
2018-01-25T22:57:40.038Z,6.40
2018-01-25T23:00:07.798Z,6.50
2018-01-25T23:02:35.560Z,6.40
2018-01-25T23:05:03.430Z,6.40
2018-01-25T23:07:31.138Z,6.40
2018-01-25T23:09:59.670Z,6.30
2018-01-25T23:12:27.535Z,6.30
2018-01-25T23:14:55.298Z,6.20
2018-01-25T23:17:23.060Z,6.20
2018-01-25T23:19:50.926Z,6.20
2018-01-25T23:22:18.688Z,6.50
2018-01-25T23:24:46.451Z,6.60
2018-01-25T23:27:14.317Z,6.40
2018-01-25T23:29:42.080Z,6.40
